Watsonville, CA

12:26 AM PST en Noviembre 29, 2014 (GMT -0800)
RAWS CORRALITOS CA US | Change Station
CLOSE
Current Station
Estación meteorológica personal
Location: Watsonville, CA
Altura: 327 ft
Estaciones meteorológicas cercanas

Alt 327 ft 36.99 °N, 121.80 °W | Updated 59 minutes ago

Nublado
Nublado
50 ° F
Sensación térmica 50 ° F
N
2
Viento Variable Viento desde ENE
Gusts 3.0 mph

Hoy
Alta -- | Baja -- ° F
--% Posibilidad de precipitaciones
Ayer
Alta -- | Baja -- ° F
Precip. -- pul
6:59 AM 4:50 PM
Creciente, 49% visible
Presión 29.91 pul
Visibilidad 10.0 Millas
Nubes Nublado 1400 ft
Punto de rocío 45 ° F
Humedad 82%
Precipitaciones 0.00 pul
Espesor de la nieve No disponible.
UV 0 de una escala de 12
Polen 2.30 de una escala de 12
Calidad del aire No disponible.
Flu Activity No disponible.
METAR KWVI 290753Z AUTO 00000KT 10SM OVC014 13/09 A2991 RMK AO2 SLP127 T01280089 401940033

More Conditions Fewer Conditions

Presión 29.91 pul
Visibilidad 10.0 Millas
Nubes Nublado 1400 ft
Punto de rocío 45 ° F
Humedad 82%
Precipitaciones 0.00 pul
Espesor de la nieve No disponible.
UV 0 de una escala de 12
Polen 2.30 de una escala de 12
Calidad del aire No disponible.
Flu Activity No disponible.
METAR KWVI 290753Z AUTO 00000KT 10SM OVC014 13/09 A2991 RMK AO2 SLP127 T01280089 401940033

More Conditions Fewer Conditions

10-Day Weather Forecast

Almanac

Astronomía

Nov. 29, 2014 Salida Puesta
Hora real
Crepúsculo civil
Crepúsculo náutico
Crepúsculo astronómico
Luna
Horas de luz
Horas de luz
Tomorrow will be .
, % of the Moon is Illuminated

Extremos de hoy

Máximos del estado Bajos del estado

Community

WunderPhotos

Upload Photos

1,774,432 ¡fotos cargadas!

WunderBlogs® & News

Nearby

Calidad del aire

  Calidad del aire Índice AQ Contaminante
Not available.

Grosos de nieve

Estación Profundido Altura

Actividad de terremotos

Ciudad Distance Mag. Tiempo y dato
Magnitud mínima muestra es 2,5.

Temperaturas de aguas costeras

Lugar Temperatura

Estaciones meteorológicas cercanas